Time;durP1;ratioP1;P1;durP2;ratioP2;P2;SDS_P1;SDS_P2;PMS_P1;PMS_P2;Temp;Humidity;BMP_temperature;BMP_pressure;BME280_temperature;BME280_humidity;BME280_pressure;Samples;Min_cycle;Max_cycle;Signal;HPM_P1;HPM_P2
2021/08/04 00:01:02;;;;;;;13.10;4.80;;;;;;;25.16;38.79;98945.19;6159799;23;20105;-74
2021/08/04 00:03:28;;;;;;;12.18;4.38;;;;;;;25.15;38.85;98949.00;6210455;23;20028;-75
2021/08/04 00:05:54;;;;;;;14.80;4.45;;;;;;;25.08;38.63;98938.09;6184484;22;20443;-76
2021/08/04 00:08:20;;;;;;;9.70;4.47;;;;;;;25.06;38.75;98944.88;6184215;23;20028;-74
2021/08/04 00:10:46;;;;;;;11.10;5.22;;;;;;;24.95;39.09;98935.50;6159396;23;20012;-75
2021/08/04 00:13:12;;;;;;;17.73;5.18;;;;;;;24.92;39.20;98952.34;6210744;23;20024;-77
2021/08/04 00:15:38;;;;;;;20.83;8.90;;;;;;;24.86;39.37;98951.38;6159800;23;20021;-76
2021/08/04 00:18:04;;;;;;;13.77;4.85;;;;;;;24.77;39.80;98952.72;6159751;23;20373;-76
2021/08/04 00:20:30;;;;;;;12.82;4.60;;;;;;;24.67;39.94;98957.84;6210419;23;20399;-77
2021/08/04 00:22:56;;;;;;;16.52;8.35;;;;;;;24.55;39.66;98944.06;6135274;23;20074;-77
2021/08/04 00:25:22;;;;;;;11.27;4.60;;;;;;;24.57;39.92;98958.34;6210764;23;20095;-77
2021/08/04 00:27:48;;;;;;;12.07;4.70;;;;;;;24.51;40.24;98944.72;6134947;23;20027;-79
2021/08/04 00:30:14;;;;;;;14.73;4.80;;;;;;;24.44;40.28;98951.06;6184140;23;20511;-77
2021/08/04 00:32:40;;;;;;;12.77;4.70;;;;;;;24.41;40.47;98948.81;6159191;23;20031;-75
2021/08/04 00:35:06;;;;;;;8.85;5.40;;;;;;;24.45;40.34;98944.56;6210596;23;20017;-75
2021/08/04 00:37:33;;;;;;;10.95;4.30;;;;;;;24.46;40.35;98957.16;6135776;23;20099;-74
2021/08/04 00:39:59;;;;;;;14.25;5.47;;;;;;;24.58;40.50;98957.28;6184388;23;20096;-74
2021/08/04 00:42:25;;;;;;;11.93;5.15;;;;;;;24.56;40.14;98950.34;6184132;23;20016;-75
2021/08/04 00:44:52;;;;;;;12.18;4.68;;;;;;;24.57;40.13;98963.00;6159332;23;20489;-74
2021/08/04 00:47:19;;;;;;;11.70;5.22;;;;;;;24.53;40.44;98961.75;6134898;23;20047;-74
2021/08/04 00:49:47;;;;;;;12.07;4.15;;;;;;;24.51;40.40;98963.88;6184309;23;20012;-74
2021/08/04 00:52:13;;;;;;;11.80;4.70;;;;;;;24.46;40.10;98957.16;6159731;23;20103;-76
2021/08/04 00:54:39;;;;;;;13.68;5.00;;;;;;;24.46;40.53;98962.63;6110520;23;20444;-75
2021/08/04 00:57:05;;;;;;;13.05;5.20;;;;;;;24.45;40.56;98960.97;6184327;23;20031;-74
2021/08/04 00:59:31;;;;;;;8.55;5.07;;;;;;;24.41;40.63;98954.28;6210436;23;20028;-75
2021/08/04 01:02:03;;;;;;;9.45;5.43;;;;;;;24.44;40.77;98955.72;6159176;23;20074;-76
2021/08/04 01:04:32;;;;;;;15.00;5.53;;;;;;;24.43;40.90;98956.78;6184169;23;20031;-75
2021/08/04 01:07:06;;;;;;;12.05;5.03;;;;;;;24.44;40.89;98963.91;6184561;23;20062;-74
2021/08/04 01:09:58;;;;;;;14.02;5.60;;;;;;;24.41;41.19;98972.53;6159642;23;20017;-76
2021/08/04 01:12:29;;;;;;;10.55;5.00;;;;;;;24.39;41.02;98967.31;6162447;23;20017;-75
2021/08/04 01:14:59;;;;;;;11.18;6.10;;;;;;;24.33;41.45;98968.16;6112257;23;20012;-75
2021/08/04 01:17:25;;;;;;;22.83;6.00;;;;;;;24.34;41.77;98975.31;6160987;23;20050;-75
2021/08/04 01:20:09;;;;;;;10.93;6.15;;;;;;;24.34;41.87;98966.28;6136272;23;20017;-75
2021/08/04 01:22:59;;;;;;;8.25;5.68;;;;;;;24.37;41.79;98969.41;6160216;23;20019;-76
2021/08/04 01:25:31;;;;;;;13.43;5.50;;;;;;;24.39;41.62;98972.78;6188014;23;20048;-75
2021/08/04 01:28:39;;;;;;;20.08;6.10;;;;;;;24.42;41.58;98977.81;6136508;23;20452;-76
2021/08/04 01:31:17;;;;;;;18.42;5.47;;;;;;;24.55;41.48;98970.56;6184592;23;20091;-75
2021/08/04 01:33:44;;;;;;;12.55;5.32;;;;;;;24.62;41.34;98979.53;6239057;23;20020;-75
2021/08/04 01:36:10;;;;;;;11.75;5.35;;;;;;;24.68;41.38;98970.47;6136381;23;20024;-75
2021/08/04 01:38:37;;;;;;;13.48;5.40;;;;;;;24.81;41.04;98985.91;6185370;23;20024;-75
2021/08/04 01:41:03;;;;;;;19.13;5.30;;;;;;;24.78;40.92;98986.34;6136292;23;20027;-76
2021/08/04 01:43:29;;;;;;;14.48;4.72;;;;;;;24.76;40.98;98988.47;6131012;23;20052;-75
2021/08/04 01:45:55;;;;;;;13.88;4.88;;;;;;;24.81;40.79;98989.47;6155673;23;20066;-77
2021/08/04 01:48:22;;;;;;;13.57;4.80;;;;;;;24.87;40.61;98991.31;6131391;23;20021;-76
2021/08/04 01:50:48;;;;;;;16.80;4.90;;;;;;;24.96;40.40;98995.44;6083271;23;20176;-75
2021/08/04 01:53:14;;;;;;;13.73;5.90;;;;;;;24.95;40.64;99004.69;6155858;23;20364;-76
2021/08/04 01:55:39;;;;;;;15.20;5.53;;;;;;;24.91;40.80;99003.47;6106452;23;20025;-75
2021/08/04 01:58:06;;;;;;;12.63;5.57;;;;;;;24.93;40.89;98993.13;6131686;23;20337;-75
2021/08/04 02:00:32;;;;;;;18.88;5.97;;;;;;;25.08;40.81;98991.97;6131751;23;20031;-75
2021/08/04 02:02:58;;;;;;;16.83;5.90;;;;;;;25.17;40.72;98993.38;6131842;23;20025;-75
2021/08/04 02:05:24;;;;;;;17.98;5.70;;;;;;;25.20;40.51;98998.41;6180621;23;20075;-76
2021/08/04 02:08:18;;;;;;;16.95;6.32;;;;;;;25.24;40.80;98990.56;6156106;23;20017;-75
2021/08/04 02:11:02;;;;;;;12.13;6.28;;;;;;;25.30;40.49;99000.59;6180784;23;20061;-78
2021/08/04 02:13:37;;;;;;;21.50;6.72;;;;;;;25.31;40.17;98997.66;6156415;22;20028;-76
2021/08/04 02:16:25;;;;;;;17.45;6.35;;;;;;;25.32;40.67;99007.53;6180491;23;20092;-76
2021/08/04 02:19:02;;;;;;;12.88;6.18;;;;;;;25.29;40.80;98994.31;6131616;23;20032;-75
2021/08/04 02:21:28;;;;;;;14.15;6.68;;;;;;;25.37;40.75;99004.13;6132402;23;20424;-75
2021/08/04 02:23:54;;;;;;;16.25;6.65;;;;;;;25.44;40.64;99008.44;6106410;23;20338;-74
2021/08/04 02:26:21;;;;;;;14.73;5.55;;;;;;;25.49;40.40;99004.19;6106009;23;20017;-75
2021/08/04 02:28:51;;;;;;;16.08;5.45;;;;;;;25.59;40.12;99004.50;6179564;23;20042;-74
2021/08/04 02:31:18;;;;;;;17.50;6.63;;;;;;;25.68;40.21;99003.13;6131718;23;20071;-74
2021/08/04 02:33:44;;;;;;;12.80;5.43;;;;;;;25.73;39.95;98995.06;6155317;23;20096;-76
2021/08/04 02:36:11;;;;;;;24.55;6.55;;;;;;;25.78;40.18;99011.66;6155069;23;20354;-75
2021/08/04 02:38:37;;;;;;;15.43;5.55;;;;;;;25.76;39.88;98996.50;6154912;23;20407;-76
2021/08/04 02:41:04;;;;;;;13.25;5.40;;;;;;;25.74;39.77;98985.78;6131391;23;20023;-79
2021/08/04 02:43:30;;;;;;;14.93;4.90;;;;;;;25.72;39.27;98987.91;6131410;23;20356;-77
2021/08/04 02:45:58;;;;;;;15.32;5.20;;;;;;;25.79;39.36;98990.59;6180100;23;20028;-77
2021/08/04 02:48:25;;;;;;;20.02;5.38;;;;;;;25.89;39.10;98989.00;6155724;23;20017;-78
2021/08/04 02:50:58;;;;;;;12.30;4.82;;;;;;;25.86;39.14;98997.66;6154966;22;20013;-79
2021/08/04 02:53:24;;;;;;;18.83;5.38;;;;;;;25.78;39.19;99008.06;6131325;23;20070;-76
2021/08/04 02:55:52;;;;;;;17.60;5.60;;;;;;;25.81;39.36;99003.00;6156004;23;20017;-85
2021/08/04 02:58:19;;;;;;;22.55;6.40;;;;;;;25.85;39.50;99009.69;6135795;23;20074;-82
2021/08/04 03:00:46;;;;;;;24.20;5.50;;;;;;;25.92;39.23;99004.97;6257327;22;20020;-81
2021/08/04 03:03:12;;;;;;;30.15;8.85;;;;;;;25.99;39.32;99009.50;6130699;23;20025;-81
2021/08/04 03:05:38;;;;;;;24.40;6.32;;;;;;;26.02;39.27;99003.56;6181175;23;20064;-82
2021/08/04 03:08:05;;;;;;;17.40;6.00;;;;;;;26.05;39.02;99003.94;6129775;23;20059;-81
2021/08/04 03:10:35;;;;;;;20.00;6.68;;;;;;;26.20;39.22;98999.97;6181070;23;20021;-80
2021/08/04 03:13:02;;;;;;;21.60;6.72;;;;;;;26.27;39.03;99004.28;6156060;23;20021;-81
2021/08/04 03:15:29;;;;;;;16.73;6.28;;;;;;;26.38;39.17;99000.75;6180214;23;20349;-79
2021/08/04 03:17:56;;;;;;;18.55;7.22;;;;;;;26.48;38.96;99002.09;6106634;23;20013;-79
2021/08/04 03:20:23;;;;;;;21.27;7.25;;;;;;;26.47;38.75;98994.94;6155733;23;20021;-78
2021/08/04 03:22:49;;;;;;;29.15;7.13;;;;;;;26.43;39.24;99004.69;6154894;22;20137;-78
2021/08/04 03:25:16;;;;;;;24.98;7.35;;;;;;;26.53;39.08;99007.72;6179549;23;20456;-78
2021/08/04 03:27:44;;;;;;;22.15;6.00;;;;;;;26.64;39.18;99002.28;6179583;23;20021;-78
2021/08/04 03:30:16;;;;;;;18.27;6.55;;;;;;;26.79;38.78;99007.31;6130779;23;20103;-80
2021/08/04 03:32:56;;;;;;;18.08;5.88;;;;;;;26.83;38.63;99003.00;6132965;23;20021;-83
2021/08/04 03:35:25;;;;;;;20.40;5.90;;;;;;;26.93;38.81;99004.31;6179020;23;20021;-79
2021/08/04 03:37:51;;;;;;;26.13;6.40;;;;;;;26.95;38.94;99004.94;6129415;23;20456;-78
2021/08/04 03:40:17;;;;;;;16.73;5.55;;;;;;;27.06;38.91;99004.94;6179584;23;20127;-80
2021/08/04 03:42:43;;;;;;;52.35;26.50;;;;;;;27.21;38.44;99018.22;6106218;23;20029;-79
2021/08/04 03:45:10;;;;;;;21.10;5.68;;;;;;;27.24;38.12;99009.50;6184393;23;20043;-78
2021/08/04 03:47:36;;;;;;;16.85;5.82;;;;;;;27.32;38.24;99014.63;6159947;22;20021;-80
2021/08/04 03:50:02;;;;;;;23.77;6.00;;;;;;;27.43;37.94;99010.22;6183520;23;20069;-79
2021/08/04 03:52:28;;;;;;;14.40;5.32;;;;;;;27.56;37.79;99020.09;6210922;23;20020;-80
2021/08/04 03:54:54;;;;;;;21.70;5.72;;;;;;;27.69;37.71;99025.34;6210709;23;20095;-79
2021/08/04 03:57:20;;;;;;;12.80;5.18;;;;;;;27.78;37.46;99018.41;6184299;23;20043;-75
2021/08/04 03:59:46;;;;;;;13.98;5.43;;;;;;;27.95;37.17;99023.16;6210706;23;20414;-77
2021/08/04 04:02:12;;;;;;;18.35;5.60;;;;;;;28.08;36.98;99017.38;6135278;23;20332;-75
2021/08/04 04:04:38;;;;;;;27.77;6.47;;;;;;;28.19;37.02;99021.97;6159537;23;20104;-81
2021/08/04 04:07:05;;;;;;;19.83;5.50;;;;;;;28.29;36.63;99024.94;6134930;23;20439;-77
2021/08/04 04:09:31;;;;;;;14.38;5.03;;;;;;;28.43;36.62;99019.16;6183960;23;20049;-78
2021/08/04 04:11:57;;;;;;;13.57;5.10;;;;;;;28.55;36.42;99026.28;6184124;23;20445;-78
2021/08/04 04:14:23;;;;;;;26.83;5.55;;;;;;;28.74;36.42;99021.38;6184225;23;20016;-78
2021/08/04 04:16:49;;;;;;;18.67;5.30;;;;;;;28.83;36.16;99008.03;6210604;23;20457;-79
2021/08/04 04:19:15;;;;;;;21.08;5.43;;;;;;;29.12;35.84;99019.81;6134909;23;20049;-79
2021/08/04 04:21:45;;;;;;;19.63;6.07;;;;;;;29.27;35.88;99022.81;6184726;23;20039;-79
2021/08/04 04:24:11;;;;;;;22.75;5.80;;;;;;;29.45;35.77;99032.72;6160278;23;20025;-79
2021/08/04 04:26:37;;;;;;;19.95;6.68;;;;;;;29.53;35.79;99034.19;6210274;23;20024;-77
2021/08/04 04:29:04;;;;;;;18.70;5.93;;;;;;;29.54;35.46;99041.38;6135464;23;20020;-78
2021/08/04 04:31:30;;;;;;;22.27;5.90;;;;;;;29.56;35.69;99041.09;6210539;23;20043;-81
2021/08/04 04:33:56;;;;;;;22.15;6.22;;;;;;;29.53;35.60;99039.72;6134051;23;20460;-82
2021/08/04 04:36:23;;;;;;;29.98;6.20;;;;;;;29.61;35.69;99046.72;6181727;23;20020;-82
2021/08/04 04:38:49;;;;;;;25.52;11.30;;;;;;;29.75;35.51;99042.50;6132628;23;20467;-82
2021/08/04 04:41:15;;;;;;;18.70;5.85;;;;;;;29.82;35.31;99048.66;6182816;23;20024;-78
2021/08/04 04:43:41;;;;;;;27.60;6.82;;;;;;;29.93;35.19;99044.09;6210425;23;20023;-79
2021/08/04 04:46:09;;;;;;;27.88;5.85;;;;;;;29.97;34.90;99045.25;6184470;23;20145;-79
2021/08/04 04:48:35;;;;;;;24.20;6.80;;;;;;;30.04;34.78;99045.91;6133938;23;20012;-80
2021/08/04 04:51:01;;;;;;;24.75;9.68;;;;;;;30.14;34.71;99046.03;6160578;23;20023;-79
2021/08/04 04:53:27;;;;;;;11.88;6.18;;;;;;;30.34;34.74;99047.38;6212118;23;20361;-77
2021/08/04 04:56:32;;;;;;;23.73;6.35;;;;;;;30.43;34.54;99051.38;6184235;23;20025;-80
2021/08/04 04:59:00;;;;;;;27.02;6.05;;;;;;;30.51;34.33;99048.13;6165244;23;20017;-78
2021/08/04 05:01:29;;;;;;;19.63;6.25;;;;;;;30.56;33.56;99020.59;6110184;23;20351;-79
2021/08/04 05:03:59;;;;;;;21.02;6.43;;;;;;;30.70;33.28;99024.59;6133795;23;20020;-78
2021/08/04 05:06:33;;;;;;;20.92;6.68;;;;;;;30.89;32.96;99027.00;6134970;23;20021;-80
2021/08/04 05:08:59;;;;;;;24.33;7.88;;;;;;;30.94;32.92;99018.75;6133923;23;20012;-81
2021/08/04 05:11:28;;;;;;;24.13;6.22;;;;;;;31.31;32.75;99043.63;6133593;23;20091;-78
2021/08/04 05:14:00;;;;;;;21.45;7.30;;;;;;;31.43;32.69;99040.66;6158493;23;20035;-79
2021/08/04 05:16:30;;;;;;;25.45;6.50;;;;;;;31.37;32.82;99031.53;6158477;23;20021;-81
2021/08/04 05:19:00;;;;;;;22.65;6.40;;;;;;;31.38;32.84;99044.22;6134485;23;20118;-78
2021/08/04 05:21:30;;;;;;;24.17;6.90;;;;;;;31.53;32.77;99043.50;6135320;22;20016;-79
2021/08/04 05:23:57;;;;;;;17.90;6.07;;;;;;;31.55;32.43;99024.72;6237201;22;20021;-79
2021/08/04 05:27:02;;;;;;;24.45;6.40;;;;;;;31.64;32.85;99048.00;6134229;23;20714;-82
2021/08/04 05:29:30;;;;;;;19.55;6.32;;;;;;;31.72;32.72;99032.00;6208999;23;20083;-79
2021/08/04 05:31:56;;;;;;;17.15;6.05;;;;;;;31.94;32.23;99057.56;6109928;23;20020;-77
2021/08/04 05:34:24;;;;;;;23.27;5.40;;;;;;;32.02;31.75;99042.41;6237351;22;20020;-79
2021/08/04 05:36:51;;;;;;;;;;;;;;;32.13;30.87;99050.47;6210007;23;20024;-77
2021/08/04 05:39:19;;;;;;;14.82;4.55;;;;;;;32.27;30.70;99055.47;6133372;23;19915;-76
2021/08/04 05:41:50;;;;;;;18.02;4.82;;;;;;;32.35;30.26;99035.59;6183719;23;20029;-77
2021/08/04 05:44:17;;;;;;;18.85;4.28;;;;;;;32.75;29.87;99045.91;6153237;23;20021;-78
2021/08/04 05:46:43;;;;;;;16.85;4.47;;;;;;;32.96;29.48;99030.19;6128859;23;20025;-82
2021/08/04 05:49:10;;;;;;;13.05;3.83;;;;;;;33.21;28.84;99020.19;6104321;23;20029;-77
2021/08/04 05:51:42;;;;;;;13.13;4.22;;;;;;;33.60;28.80;99024.03;6104036;23;20028;-78
2021/08/04 05:54:14;;;;;;;13.38;3.90;;;;;;;33.81;28.92;99023.94;6129674;23;20028;-81
2021/08/04 05:57:04;;;;;;;15.38;4.30;;;;;;;34.14;28.15;99027.16;6130116;23;20024;-79
2021/08/04 06:03:00;;;;;;;26.33;8.43;;;;;;;34.23;28.01;99022.69;6178071;23;20021;-83
2021/08/04 06:05:31;;;;;;;12.55;4.10;;;;;;;33.99;28.47;99020.56;6131559;23;20103;-79
2021/08/04 06:07:58;;;;;;;;;;;;;;;33.99;28.52;99033.63;6230335;23;20047;-77
2021/08/04 06:10:24;;;;;;;15.13;4.10;;;;;;;33.97;28.71;99038.59;6177491;23;20351;-79
2021/08/04 06:12:55;;;;;;;18.50;5.07;;;;;;;34.03;28.11;99024.44;6105695;23;20356;-80
2021/08/04 06:15:22;;;;;;;13.88;4.00;;;;;;;34.25;27.46;99020.44;6129659;23;20108;-78
2021/08/04 06:17:48;;;;;;;19.73;5.25;;;;;;;34.46;27.56;99030.31;6104111;23;20371;-77
2021/08/04 06:20:16;;;;;;;23.45;4.60;;;;;;;34.68;27.37;99026.28;6080507;23;20024;-77
2021/08/04 06:22:46;;;;;;;14.95;4.60;;;;;;;34.77;27.58;99030.13;6130293;23;20652;-76
2021/08/04 06:25:13;;;;;;;18.42;4.88;;;;;;;34.86;27.46;99033.09;6177434;23;20400;-78
2021/08/04 06:27:39;;;;;;;20.92;6.60;;;;;;;34.83;27.35;99023.44;6129306;23;20025;-77
2021/08/04 06:30:09;;;;;;;16.23;4.10;;;;;;;34.84;27.06;99019.53;6232034;22;20056;-78
2021/08/04 06:32:36;;;;;;;23.20;4.93;;;;;;;34.98;26.65;99026.09;6130201;23;20021;-78
2021/08/04 06:35:02;;;;;;;14.27;4.22;;;;;;;35.08;26.13;99002.13;6130664;23;20024;-78
2021/08/04 06:37:29;;;;;;;16.98;4.72;;;;;;;35.42;26.03;99018.72;6105969;23;20025;-78
2021/08/04 06:39:57;;;;;;;20.88;4.30;;;;;;;35.41;25.91;98994.84;6104427;23;20348;-78
2021/08/04 06:42:27;;;;;;;24.10;4.90;;;;;;;35.63;25.92;99019.38;6129178;23;20044;-80
2021/08/04 06:44:53;;;;;;;20.30;4.82;;;;;;;35.81;25.73;99010.28;6158506;23;20021;-77
2021/08/04 06:47:21;;;;;;;20.90;4.97;;;;;;;35.72;25.85;99003.69;6154253;23;20021;-78
2021/08/04 06:49:47;;;;;;;15.20;4.55;;;;;;;35.63;26.09;99011.88;6128466;23;20017;-78
2021/08/04 06:52:16;;;;;;;21.52;5.35;;;;;;;35.65;26.35;98989.31;6104464;23;20355;-81
2021/08/04 06:54:53;;;;;;;32.65;15.52;;;;;;;35.73;26.13;98997.84;6088547;23;20021;-80
2021/08/04 06:57:26;;;;;;;25.00;5.05;;;;;;;35.91;26.19;99004.56;6154014;22;20025;-80
2021/08/04 06:59:55;;;;;;;21.73;5.63;;;;;;;36.03;25.51;99006.13;6177088;23;20474;-78
2021/08/04 07:02:21;;;;;;;26.38;6.00;;;;;;;35.95;25.38;99002.84;6103746;23;20024;-78
2021/08/04 07:04:48;;;;;;;25.83;5.78;;;;;;;35.84;25.37;98995.75;6079402;23;20083;-77
2021/08/04 07:07:17;;;;;;;16.27;4.55;;;;;;;35.85;25.67;98994.66;6103988;23;20478;-78
2021/08/04 07:09:48;;;;;;;16.80;4.95;;;;;;;36.05;25.26;98988.00;6106921;23;20017;-81
2021/08/04 07:12:16;;;;;;;25.55;5.53;;;;;;;36.13;25.39;98978.16;6128006;23;20016;-78
2021/08/04 07:14:43;;;;;;;20.90;5.50;;;;;;;36.36;25.15;98982.81;6104547;23;20025;-77
2021/08/04 07:17:11;;;;;;;19.00;6.10;;;;;;;36.49;24.91;98986.03;6177209;23;20045;-78
2021/08/04 07:19:37;;;;;;;13.38;4.93;;;;;;;36.56;24.79;98992.00;6152800;23;20013;-78
2021/08/04 07:22:04;;;;;;;15.33;4.23;;;;;;;36.52;24.20;98979.81;6105077;23;20077;-78
2021/08/04 07:24:31;;;;;;;15.82;4.80;;;;;;;36.49;24.53;98972.09;6128361;23;20583;-78
2021/08/04 07:26:57;;;;;;;22.85;4.55;;;;;;;36.62;23.58;98991.63;6127836;23;20493;-80
2021/08/04 07:29:29;;;;;;;14.70;3.92;;;;;;;36.73;23.28;98986.72;6129285;22;20047;-79
2021/08/04 07:32:10;;;;;;;20.58;4.43;;;;;;;36.67;23.42;98972.09;6154188;23;20025;-80
2021/08/04 07:34:49;;;;;;;15.27;4.90;;;;;;;36.91;23.57;98993.41;6137871;23;20341;-76
2021/08/04 07:37:36;;;;;;;19.90;4.80;;;;;;;37.10;23.09;98985.84;6255932;22;20052;-80
2021/08/04 07:40:22;;;;;;;126.80;83.88;;;;;;;37.31;22.66;98991.88;6116473;23;20017;-80
2021/08/04 07:43:49;;;;;;;;;;;;;;;37.32;22.78;98993.53;6227856;22;20025;-78
2021/08/04 07:46:22;;;;;;;19.65;4.45;;;;;;;37.31;22.45;98975.16;6177256;23;19994;-78
2021/08/04 07:48:49;;;;;;;20.60;4.88;;;;;;;37.38;22.55;98981.13;6231556;22;20020;-78
2021/08/04 07:51:19;;;;;;;15.55;5.28;;;;;;;37.56;22.30;98976.63;6103841;23;20107;-78
2021/08/04 07:53:47;;;;;;;23.35;5.10;;;;;;;37.87;22.13;98976.81;6128255;23;20056;-77
2021/08/04 07:56:13;;;;;;;14.88;5.20;;;;;;;38.05;22.55;98971.44;6103524;23;20049;-77
2021/08/04 07:58:41;;;;;;;22.60;5.05;;;;;;;38.28;21.91;98967.56;6129201;22;20022;-78
2021/08/04 08:01:07;;;;;;;13.93;4.72;;;;;;;38.33;21.72;98973.03;6103795;23;20065;-79
2021/08/04 08:03:34;;;;;;;18.17;4.85;;;;;;;38.36;21.42;98972.41;6102831;23;20036;-77
2021/08/04 08:06:01;;;;;;;16.73;4.85;;;;;;;38.22;21.76;98960.47;6152298;23;20017;-80
2021/08/04 08:08:28;;;;;;;21.70;4.88;;;;;;;38.39;21.68;98977.38;6103690;23;20024;-78
2021/08/04 08:11:03;;;;;;;103.53;68.68;;;;;;;38.57;21.84;98969.16;6103639;23;20024;-77
2021/08/04 08:13:44;;;;;;;;;;;;;;;;;;;;;
2021/08/04 08:16:18;;;;;;;17.33;3.85;;;;;;;38.56;20.84;98959.13;6155247;23;20504;-77
2021/08/04 08:18:52;;;;;;;14.85;4.22;;;;;;;38.66;20.80;98941.28;6153944;23;20017;-77
2021/08/04 08:21:23;;;;;;;11.95;4.53;;;;;;;38.84;20.62;98957.03;6129042;23;20013;-80
2021/08/04 08:23:54;;;;;;;14.27;3.92;;;;;;;39.20;20.34;98970.09;6151431;23;20451;-77
2021/08/04 08:26:33;;;;;;;12.55;3.50;;;;;;;39.28;18.48;98958.97;6154925;23;20027;-76
2021/08/04 08:28:59;;;;;;;13.60;3.47;;;;;;;39.13;19.15;98934.19;6103685;23;20052;-77
2021/08/04 08:31:28;;;;;;;12.30;3.55;;;;;;;38.90;19.12;98938.19;6127737;23;20026;-78
2021/08/04 08:34:03;;;;;;;15.35;4.50;;;;;;;39.08;20.27;98937.09;6103630;23;20020;-78
2021/08/04 08:36:46;;;;;;;;;;;;;;;;;;;;;
2021/08/04 08:39:18;;;;;;;11.50;3.15;;;;;;;39.80;19.22;98931.19;6180949;23;20074;-78
2021/08/04 08:41:45;;;;;;;10.85;2.53;;;;;;;39.94;17.10;98930.22;6129895;23;20017;-79
2021/08/04 08:44:11;;;;;;;16.27;2.97;;;;;;;39.97;17.63;98929.56;6112798;23;20031;-77
2021/08/04 08:46:47;;;;;;;14.20;3.63;;;;;;;40.42;17.75;98918.91;6084021;23;20052;-80
2021/08/04 08:49:21;;;;;;;7.93;3.30;;;;;;;40.82;17.24;98904.69;6151204;23;20031;-76
2021/08/04 08:51:51;;;;;;;20.63;3.55;;;;;;;41.18;17.24;98895.84;6082090;23;20013;-77
2021/08/04 08:54:17;;;;;;;10.80;2.60;;;;;;;41.44;16.34;98925.78;6152034;23;20462;-76
2021/08/04 08:56:44;;;;;;;12.60;2.67;;;;;;;41.59;15.88;98910.34;6152269;23;20025;-79
2021/08/04 08:59:10;;;;;;;11.40;2.45;;;;;;;41.81;15.63;98907.25;6079217;23;20136;-76
2021/08/04 09:01:39;;;;;;;11.50;3.17;;;;;;;41.90;15.64;98899.63;6102601;23;20017;-78
2021/08/04 09:07:37;;;;;;;8.68;2.70;;;;;;;41.77;16.09;98866.16;6195634;23;20462;-78
2021/08/04 09:10:33;;;;;;;11.82;4.00;;;;;;;41.73;16.26;98878.06;6151836;23;20092;-77
2021/08/04 09:13:02;;;;;;;8.70;2.50;;;;;;;41.77;15.00;98878.22;6152684;23;20017;-79
2021/08/04 09:15:32;;;;;;;13.13;2.45;;;;;;;41.35;14.90;98866.91;6176266;23;20025;-77
2021/08/04 09:18:09;;;;;;;12.35;2.92;;;;;;;41.76;15.20;98865.34;6151582;23;20359;-78
2021/08/04 09:20:53;;;;;;;11.93;2.70;;;;;;;41.72;14.81;98865.22;6151706;23;20517;-77
2021/08/04 09:23:21;;;;;;;5.25;2.50;;;;;;;41.32;14.54;98853.56;6152342;23;20459;-80
2021/08/04 09:26:09;;;;;;;8.93;2.25;;;;;;;40.67;13.47;98858.41;6127907;23;20029;-81
2021/08/04 09:29:36;;;;;;;19.80;2.67;;;;;;;40.34;14.99;98860.09;6131983;23;20542;-80
2021/08/04 09:32:52;;;;;;;19.40;5.80;;;;;;;39.98;15.53;98858.44;6175499;23;20025;-79
2021/08/04 09:35:25;;;;;;;12.63;3.10;;;;;;;39.77;15.79;98847.91;6129988;23;20100;-79
2021/08/04 09:37:51;;;;;;;18.55;3.15;;;;;;;39.51;16.11;98838.63;6153587;23;20471;-78
2021/08/04 09:40:27;;;;;;;29.92;4.30;;;;;;;38.69;15.46;98838.09;6128167;22;20387;-79
2021/08/04 09:42:56;;;;;;;9.93;2.20;;;;;;;38.12;13.81;98849.88;6156828;23;20282;-78
2021/08/04 09:45:51;;;;;;;9.25;1.92;;;;;;;38.13;13.49;98845.09;6159008;23;20107;-78
2021/08/04 09:48:23;;;;;;;9.52;2.42;;;;;;;37.90;13.67;98847.88;6182467;23;20025;-78
2021/08/04 09:51:00;;;;;;;9.43;2.58;;;;;;;38.04;13.82;98866.56;6113793;23;20021;-77
2021/08/04 09:53:49;;;;;;;44.72;4.80;;;;;;;37.26;16.89;98871.28;6157621;23;20017;-78
2021/08/04 10:17:43;;;;;;;8.68;2.58;;;;;;;34.28;23.71;98879.22;5929153;23;20051;-78
2021/08/04 10:20:09;;;;;;;8.55;2.53;;;;;;;34.34;24.48;98863.38;5922994;23;20024;-78
2021/08/04 10:22:36;;;;;;;12.45;2.50;;;;;;;34.62;24.43;98860.91;5970986;23;20023;-79
2021/08/04 10:25:03;;;;;;;9.05;2.10;;;;;;;34.89;22.19;98860.34;6227436;22;20025;-80
2021/08/04 10:27:30;;;;;;;10.95;4.97;;;;;;;35.44;21.45;98861.69;6133571;23;20041;-79
2021/08/04 10:29:59;;;;;;;8.43;2.78;;;;;;;36.17;21.29;98870.69;6133950;23;20046;-80
2021/08/04 10:32:25;;;;;;;13.10;4.07;;;;;;;37.06;21.78;98878.09;6109039;23;20020;-77
2021/08/04 10:34:54;;;;;;;22.98;14.48;;;;;;;37.55;20.97;98868.19;6131979;23;20031;-78
2021/08/04 10:37:22;;;;;;;22.75;15.43;;;;;;;37.71;21.50;98865.88;6159030;23;20017;-78
2021/08/04 10:39:49;;;;;;;26.13;13.88;;;;;;;37.92;21.04;98872.69;6158066;23;20104;-76
2021/08/04 10:42:40;;;;;;;12.68;5.32;;;;;;;38.66;20.64;98889.03;6162748;23;20460;-78
2021/08/04 10:45:27;;;;;;;18.90;7.32;;;;;;;39.44;19.89;98889.44;6152983;23;20051;-78
2021/08/04 10:48:24;;;;;;;16.52;4.50;;;;;;;40.41;19.41;98894.84;6152639;23;20019;-78
2021/08/04 10:51:14;;;;;;;9.07;2.88;;;;;;;41.17;17.69;98894.19;6134310;23;20017;-76
2021/08/04 10:54:13;;;;;;;13.65;3.70;;;;;;;41.63;17.66;98877.66;6177700;23;20074;-77
2021/08/04 10:56:42;;;;;;;15.63;4.18;;;;;;;41.45;18.17;98883.38;6082444;23;20021;-77
2021/08/04 10:59:08;;;;;;;12.35;3.72;;;;;;;41.93;17.86;98879.28;6128011;23;20032;-79
2021/08/04 11:01:45;;;;;;;13.60;4.05;;;;;;;41.74;17.68;98879.72;6177638;23;20030;-79
2021/08/04 11:04:15;;;;;;;13.30;4.17;;;;;;;41.92;17.90;98888.03;6104226;23;20033;-77
2021/08/04 11:07:09;;;;;;;14.38;4.03;;;;;;;41.70;18.34;98895.59;6131164;23;20028;-77
2021/08/04 11:09:49;;;;;;;18.38;3.72;;;;;;;41.78;18.51;98907.91;6177077;23;20021;-77
2021/08/04 11:12:25;;;;;;;11.98;3.25;;;;;;;41.57;18.12;98907.91;6177487;23;20062;-77
2021/08/04 11:14:55;;;;;;;14.55;3.72;;;;;;;41.99;17.47;98924.81;6153403;23;20440;-79
2021/08/04 11:18:06;;;;;;;14.43;3.30;;;;;;;42.18;17.49;98927.16;6177069;23;20013;-79
2021/08/04 11:20:39;;;;;;;11.77;3.10;;;;;;;42.50;17.82;98928.38;6131707;23;20025;-77
2021/08/04 11:23:09;;;;;;;15.07;2.90;;;;;;;42.58;17.12;98937.88;6152342;23;20107;-78
2021/08/04 11:25:45;;;;;;;11.48;2.38;;;;;;;42.98;16.83;98921.31;6153268;23;20051;-77
2021/08/04 11:28:16;;;;;;;13.07;2.58;;;;;;;43.80;15.42;98928.91;6153744;23;20448;-78
2021/08/04 11:30:46;;;;;;;11.35;2.58;;;;;;;43.79;15.63;98924.44;6152548;23;20070;-78
2021/08/04 11:33:24;;;;;;;10.20;2.85;;;;;;;43.82;15.73;98923.72;6152898;23;20062;-78
2021/08/04 11:36:26;;;;;;;7.65;2.67;;;;;;;42.86;15.95;98919.28;6152706;23;20094;-78
2021/08/04 11:39:01;;;;;;;9.73;3.60;;;;;;;42.57;16.44;98903.34;6105228;23;20352;-78
2021/08/04 11:41:44;;;;;;;11.48;2.53;;;;;;;43.48;15.18;98892.09;6153286;23;20350;-77
2021/08/04 11:44:23;;;;;;;7.95;2.17;;;;;;;43.50;15.21;98901.00;6154099;23;20479;-77
2021/08/04 11:47:01;;;;;;;6.72;2.47;;;;;;;42.86;16.14;98890.34;6152664;23;20513;-78
2021/08/04 11:49:39;;;;;;;;;;;;;;;43.02;15.50;98898.94;6107162;23;20031;-77
2021/08/04 11:53:04;;;;;;;6.90;2.05;;;;;;;43.65;14.18;98902.28;6153094;23;20014;-86
2021/08/04 11:56:28;;;;;;;11.85;2.17;;;;;;;43.82;13.83;98895.56;6177377;23;20020;-81
2021/08/04 11:59:38;;;;;;;;;;;;;;;;;;;;;
2021/08/04 12:03:06;;;;;;;6.65;1.88;;;;;;;44.74;13.04;98877.81;6164831;22;20028;-81
2021/08/04 12:06:27;;;;;;;6.07;1.98;;;;;;;44.47;13.25;98873.81;6213422;22;20464;-82
2021/08/04 12:13:14;;;;;;;10.32;2.40;;;;;;;45.69;13.28;98868.50;6123672;23;20029;-82
2021/08/04 12:16:23;;;;;;;9.18;2.05;;;;;;;46.57;12.34;98882.94;6171269;23;20104;-82
2021/08/04 12:20:04;;;;;;;6.75;2.28;;;;;;;47.31;11.48;98882.66;6078700;23;20014;-81
2021/08/04 12:22:37;;;;;;;15.20;2.20;;;;;;;47.75;11.69;98879.34;6182377;23;20032;-79
2021/08/04 12:25:15;;;;;;;12.27;2.70;;;;;;;48.05;11.53;98875.72;6130289;23;20024;-78
2021/08/04 12:27:57;;;;;;;5.50;2.17;;;;;;;49.07;10.57;98900.00;6112846;23;20395;-79
2021/08/04 12:30:34;;;;;;;7.40;2.50;;;;;;;49.40;10.75;98882.06;6152645;23;20382;-78